sensor_id;sensor_type;location;lat;lon;timestamp;temperature;humidity
24250;DHT22;12379;49.820;8.648;2023-04-30T00:01:28;12.30;99.90
24250;DHT22;12379;49.820;8.648;2023-04-30T00:03:54;12.30;99.90
24250;DHT22;12379;49.820;8.648;2023-04-30T00:06:20;12.30;99.90
24250;DHT22;12379;49.820;8.648;2023-04-30T00:08:46;12.20;99.90
24250;DHT22;12379;49.820;8.648;2023-04-30T00:11:11;12.20;99.90
24250;DHT22;12379;49.820;8.648;2023-04-30T00:13:37;12.20;99.90
24250;DHT22;12379;49.820;8.648;2023-04-30T00:16:03;12.10;99.90
24250;DHT22;12379;49.820;8.648;2023-04-30T00:18:28;12.10;99.90
24250;DHT22;12379;49.820;8.648;2023-04-30T00:20:54;12.20;99.90
24250;DHT22;12379;49.820;8.648;2023-04-30T00:23:19;12.20;99.90
24250;DHT22;12379;49.820;8.648;2023-04-30T00:25:45;12.10;99.90
24250;DHT22;12379;49.820;8.648;2023-04-30T00:28:11;12.10;99.90
24250;DHT22;12379;49.820;8.648;2023-04-30T00:30:36;12.00;99.90
24250;DHT22;12379;49.820;8.648;2023-04-30T00:33:02;12.00;99.90
24250;DHT22;12379;49.820;8.648;2023-04-30T00:35:27;12.00;99.90
24250;DHT22;12379;49.820;8.648;2023-04-30T00:37:53;12.00;99.90
24250;DHT22;12379;49.820;8.648;2023-04-30T00:40:19;12.00;99.90
24250;DHT22;12379;49.820;8.648;2023-04-30T00:42:44;12.00;99.90
24250;DHT22;12379;49.820;8.648;2023-04-30T00:45:10;12.10;99.90
24250;DHT22;12379;49.820;8.648;2023-04-30T00:47:36;12.10;99.90
24250;DHT22;12379;49.820;8.648;2023-04-30T00:50:01;12.00;99.90
24250;DHT22;12379;49.820;8.648;2023-04-30T00:52:27;12.00;99.90
24250;DHT22;12379;49.820;8.648;2023-04-30T00:54:53;12.00;99.90
24250;DHT22;12379;49.820;8.648;2023-04-30T00:57:20;12.00;99.90
24250;DHT22;12379;49.820;8.648;2023-04-30T00:59:47;12.00;99.90
24250;DHT22;12379;49.820;8.648;2023-04-30T01:02:13;12.00;99.90
24250;DHT22;12379;49.820;8.648;2023-04-30T01:04:39;12.00;99.90
24250;DHT22;12379;49.820;8.648;2023-04-30T01:07:05;12.00;99.90
24250;DHT22;12379;49.820;8.648;2023-04-30T01:09:31;12.00;99.90
24250;DHT22;12379;49.820;8.648;2023-04-30T01:12:20;12.00;99.90
24250;DHT22;12379;49.820;8.648;2023-04-30T01:17:36;11.90;99.90
24250;DHT22;12379;49.820;8.648;2023-04-30T01:20:06;11.90;99.90
24250;DHT22;12379;49.820;8.648;2023-04-30T01:22:45;11.90;99.90
24250;DHT22;12379;49.820;8.648;2023-04-30T01:28:25;11.90;99.90
24250;DHT22;12379;49.820;8.648;2023-04-30T01:30:53;11.90;99.90
24250;DHT22;12379;49.820;8.648;2023-04-30T01:33:19;11.90;99.90
24250;DHT22;12379;49.820;8.648;2023-04-30T01:46:29;11.80;99.90
24250;DHT22;12379;49.820;8.648;2023-04-30T01:49:31;11.80;99.90
24250;DHT22;12379;49.820;8.648;2023-04-30T01:52:21;11.80;99.90
24250;DHT22;12379;49.820;8.648;2023-04-30T01:54:56;11.80;99.90
24250;DHT22;12379;49.820;8.648;2023-04-30T01:57:30;11.80;99.90
24250;DHT22;12379;49.820;8.648;2023-04-30T01:59:57;11.70;99.90
24250;DHT22;12379;49.820;8.648;2023-04-30T02:02:22;11.70;99.90
24250;DHT22;12379;49.820;8.648;2023-04-30T02:04:48;11.60;99.90
24250;DHT22;12379;49.820;8.648;2023-04-30T02:07:25;11.60;99.90
24250;DHT22;12379;49.820;8.648;2023-04-30T02:09:51;11.70;99.90
24250;DHT22;12379;49.820;8.648;2023-04-30T02:12:17;11.70;99.90
24250;DHT22;12379;49.820;8.648;2023-04-30T02:14:42;11.70;99.90
24250;DHT22;12379;49.820;8.648;2023-04-30T02:17:08;11.60;99.90
24250;DHT22;12379;49.820;8.648;2023-04-30T02:19:33;11.70;99.90
24250;DHT22;12379;49.820;8.648;2023-04-30T02:21:59;11.60;99.90
24250;DHT22;12379;49.820;8.648;2023-04-30T02:24:25;11.60;99.90
24250;DHT22;12379;49.820;8.648;2023-04-30T02:26:50;11.60;99.90
24250;DHT22;12379;49.820;8.648;2023-04-30T02:29:16;11.60;99.90
24250;DHT22;12379;49.820;8.648;2023-04-30T02:31:41;11.50;99.90
24250;DHT22;12379;49.820;8.648;2023-04-30T02:34:07;11.50;99.90
24250;DHT22;12379;49.820;8.648;2023-04-30T02:36:32;11.50;99.90
24250;DHT22;12379;49.820;8.648;2023-04-30T02:39:01;11.50;99.90
24250;DHT22;12379;49.820;8.648;2023-04-30T02:41:26;11.50;99.90
24250;DHT22;12379;49.820;8.648;2023-04-30T02:43:52;11.50;99.90
24250;DHT22;12379;49.820;8.648;2023-04-30T02:46:17;11.50;99.90
24250;DHT22;12379;49.820;8.648;2023-04-30T02:48:43;11.40;99.90
24250;DHT22;12379;49.820;8.648;2023-04-30T02:51:09;11.40;99.90
24250;DHT22;12379;49.820;8.648;2023-04-30T02:53:34;11.40;99.90
24250;DHT22;12379;49.820;8.648;2023-04-30T02:56:00;11.40;99.90
24250;DHT22;12379;49.820;8.648;2023-04-30T02:58:33;11.40;99.90
24250;DHT22;12379;49.820;8.648;2023-04-30T03:00:58;11.40;99.90
24250;DHT22;12379;49.820;8.648;2023-04-30T03:03:24;11.40;99.90
24250;DHT22;12379;49.820;8.648;2023-04-30T03:05:49;11.40;99.90
24250;DHT22;12379;49.820;8.648;2023-04-30T03:08:15;11.40;99.90
24250;DHT22;12379;49.820;8.648;2023-04-30T03:10:40;11.40;99.90
24250;DHT22;12379;49.820;8.648;2023-04-30T03:13:06;11.40;99.90
24250;DHT22;12379;49.820;8.648;2023-04-30T03:15:32;11.40;99.90
24250;DHT22;12379;49.820;8.648;2023-04-30T03:17:57;11.40;99.90
24250;DHT22;12379;49.820;8.648;2023-04-30T03:20:23;11.50;99.90
24250;DHT22;12379;49.820;8.648;2023-04-30T03:22:48;11.40;99.90
24250;DHT22;12379;49.820;8.648;2023-04-30T03:25:14;11.40;99.90
24250;DHT22;12379;49.820;8.648;2023-04-30T03:27:39;11.40;99.90
24250;DHT22;12379;49.820;8.648;2023-04-30T03:30:05;11.50;99.90
24250;DHT22;12379;49.820;8.648;2023-04-30T03:32:31;11.40;99.90
24250;DHT22;12379;49.820;8.648;2023-04-30T03:34:57;11.40;99.90
24250;DHT22;12379;49.820;8.648;2023-04-30T03:37:22;11.40;99.90
24250;DHT22;12379;49.820;8.648;2023-04-30T03:39:48;11.40;99.90
24250;DHT22;12379;49.820;8.648;2023-04-30T03:42:13;11.40;99.90
24250;DHT22;12379;49.820;8.648;2023-04-30T03:44:39;11.40;99.90
24250;DHT22;12379;49.820;8.648;2023-04-30T03:47:04;11.40;99.90
24250;DHT22;12379;49.820;8.648;2023-04-30T03:49:30;11.30;99.90
24250;DHT22;12379;49.820;8.648;2023-04-30T03:51:56;11.30;99.90
24250;DHT22;12379;49.820;8.648;2023-04-30T03:54:21;11.30;99.90
24250;DHT22;12379;49.820;8.648;2023-04-30T03:56:47;11.30;99.90
24250;DHT22;12379;49.820;8.648;2023-04-30T03:59:12;11.30;99.90
24250;DHT22;12379;49.820;8.648;2023-04-30T04:01:38;11.30;99.90
24250;DHT22;12379;49.820;8.648;2023-04-30T04:04:03;11.30;99.90
24250;DHT22;12379;49.820;8.648;2023-04-30T04:06:29;11.30;99.90
24250;DHT22;12379;49.820;8.648;2023-04-30T04:08:55;11.30;99.90
24250;DHT22;12379;49.820;8.648;2023-04-30T04:11:21;11.30;99.90
24250;DHT22;12379;49.820;8.648;2023-04-30T04:13:46;11.20;99.90
24250;DHT22;12379;49.820;8.648;2023-04-30T04:16:12;11.20;99.90
24250;DHT22;12379;49.820;8.648;2023-04-30T04:18:37;11.30;99.90
24250;DHT22;12379;49.820;8.648;2023-04-30T04:21:03;11.30;99.90
24250;DHT22;12379;49.820;8.648;2023-04-30T04:23:28;11.30;99.90
24250;DHT22;12379;49.820;8.648;2023-04-30T04:25:54;11.30;99.90
24250;DHT22;12379;49.820;8.648;2023-04-30T04:28:20;11.30;99.90
24250;DHT22;12379;49.820;8.648;2023-04-30T04:30:46;11.30;99.90
24250;DHT22;12379;49.820;8.648;2023-04-30T04:33:11;11.30;99.90
24250;DHT22;12379;49.820;8.648;2023-04-30T04:35:37;11.30;99.90
24250;DHT22;12379;49.820;8.648;2023-04-30T04:38:02;11.30;99.90
24250;DHT22;12379;49.820;8.648;2023-04-30T04:40:29;11.30;99.90
24250;DHT22;12379;49.820;8.648;2023-04-30T04:42:54;11.40;99.90
24250;DHT22;12379;49.820;8.648;2023-04-30T04:45:20;11.30;99.90
24250;DHT22;12379;49.820;8.648;2023-04-30T04:47:46;11.30;99.90
24250;DHT22;12379;49.820;8.648;2023-04-30T04:50:12;11.30;99.90
24250;DHT22;12379;49.820;8.648;2023-04-30T04:52:38;11.30;99.90
24250;DHT22;12379;49.820;8.648;2023-04-30T04:55:04;11.40;99.90
24250;DHT22;12379;49.820;8.648;2023-04-30T04:57:30;11.50;99.90
24250;DHT22;12379;49.820;8.648;2023-04-30T04:59:56;11.50;99.90
24250;DHT22;12379;49.820;8.648;2023-04-30T05:02:21;11.50;99.90
24250;DHT22;12379;49.820;8.648;2023-04-30T05:04:48;11.50;99.90
24250;DHT22;12379;49.820;8.648;2023-04-30T05:07:15;11.60;99.90
24250;DHT22;12379;49.820;8.648;2023-04-30T05:09:41;11.60;99.90
24250;DHT22;12379;49.820;8.648;2023-04-30T05:12:07;11.60;99.90
24250;DHT22;12379;49.820;8.648;2023-04-30T05:14:32;11.70;99.90
24250;DHT22;12379;49.820;8.648;2023-04-30T05:16:59;11.70;99.90
24250;DHT22;12379;49.820;8.648;2023-04-30T05:19:24;11.80;99.90
24250;DHT22;12379;49.820;8.648;2023-04-30T05:21:50;11.80;99.90
24250;DHT22;12379;49.820;8.648;2023-04-30T05:24:15;11.90;99.90
24250;DHT22;12379;49.820;8.648;2023-04-30T05:26:41;11.90;99.90
24250;DHT22;12379;49.820;8.648;2023-04-30T05:29:07;11.90;99.90
24250;DHT22;12379;49.820;8.648;2023-04-30T05:31:34;12.00;99.90
24250;DHT22;12379;49.820;8.648;2023-04-30T05:34:00;12.00;99.90
24250;DHT22;12379;49.820;8.648;2023-04-30T05:36:25;12.10;99.90
24250;DHT22;12379;49.820;8.648;2023-04-30T05:38:51;12.30;99.90
24250;DHT22;12379;49.820;8.648;2023-04-30T05:41:16;12.30;99.90
24250;DHT22;12379;49.820;8.648;2023-04-30T05:43:42;12.50;99.90
24250;DHT22;12379;49.820;8.648;2023-04-30T05:46:07;12.60;99.90
24250;DHT22;12379;49.820;8.648;2023-04-30T05:48:33;12.70;99.90
24250;DHT22;12379;49.820;8.648;2023-04-30T05:50:58;12.70;99.90
24250;DHT22;12379;49.820;8.648;2023-04-30T05:53:24;12.70;99.90
24250;DHT22;12379;49.820;8.648;2023-04-30T05:55:49;12.70;99.90
24250;DHT22;12379;49.820;8.648;2023-04-30T05:58:15;12.70;99.90
24250;DHT22;12379;49.820;8.648;2023-04-30T06:00:41;12.80;99.90
24250;DHT22;12379;49.820;8.648;2023-04-30T06:03:06;12.70;99.90
24250;DHT22;12379;49.820;8.648;2023-04-30T06:05:32;12.60;99.90
24250;DHT22;12379;49.820;8.648;2023-04-30T06:07:57;12.70;99.90
24250;DHT22;12379;49.820;8.648;2023-04-30T06:10:23;12.70;99.90
24250;DHT22;12379;49.820;8.648;2023-04-30T06:12:48;12.70;99.90
24250;DHT22;12379;49.820;8.648;2023-04-30T06:15:14;12.60;99.90
24250;DHT22;12379;49.820;8.648;2023-04-30T06:17:40;12.70;99.90
24250;DHT22;12379;49.820;8.648;2023-04-30T06:20:06;12.90;99.90
24250;DHT22;12379;49.820;8.648;2023-04-30T06:22:33;13.00;99.90
24250;DHT22;12379;49.820;8.648;2023-04-30T06:25:01;13.20;99.90
24250;DHT22;12379;49.820;8.648;2023-04-30T06:27:28;13.20;99.90
24250;DHT22;12379;49.820;8.648;2023-04-30T06:30:00;13.40;99.90
24250;DHT22;12379;49.820;8.648;2023-04-30T06:32:26;13.40;99.90
24250;DHT22;12379;49.820;8.648;2023-04-30T06:34:52;14.00;99.90
24250;DHT22;12379;49.820;8.648;2023-04-30T06:37:17;14.80;99.90
24250;DHT22;12379;49.820;8.648;2023-04-30T06:39:49;15.10;99.90
24250;DHT22;12379;49.820;8.648;2023-04-30T06:42:16;15.60;99.90
24250;DHT22;12379;49.820;8.648;2023-04-30T06:44:45;16.40;99.90
24250;DHT22;12379;49.820;8.648;2023-04-30T06:47:11;17.60;99.90
24250;DHT22;12379;49.820;8.648;2023-04-30T06:49:42;18.50;99.90
24250;DHT22;12379;49.820;8.648;2023-04-30T06:52:08;19.60;98.40
24250;DHT22;12379;49.820;8.648;2023-04-30T06:54:39;20.00;95.50
24250;DHT22;12379;49.820;8.648;2023-04-30T06:57:05;20.30;93.90
24250;DHT22;12379;49.820;8.648;2023-04-30T06:59:31;20.60;92.20
24250;DHT22;12379;49.820;8.648;2023-04-30T07:01:57;20.70;91.30
24250;DHT22;12379;49.820;8.648;2023-04-30T07:04:22;20.90;90.90
24250;DHT22;12379;49.820;8.648;2023-04-30T07:06:48;21.30;88.30
24250;DHT22;12379;49.820;8.648;2023-04-30T07:09:15;21.10;87.70
24250;DHT22;12379;49.820;8.648;2023-04-30T07:11:40;20.90;86.40
24250;DHT22;12379;49.820;8.648;2023-04-30T07:14:07;21.00;85.90
24250;DHT22;12379;49.820;8.648;2023-04-30T07:16:33;21.70;84.10
24250;DHT22;12379;49.820;8.648;2023-04-30T07:18:59;21.90;82.30
24250;DHT22;12379;49.820;8.648;2023-04-30T07:21:24;22.50;79.40
24250;DHT22;12379;49.820;8.648;2023-04-30T07:23:50;22.80;79.60
24250;DHT22;12379;49.820;8.648;2023-04-30T07:26:16;22.40;78.10
24250;DHT22;12379;49.820;8.648;2023-04-30T07:28:41;22.60;76.10
24250;DHT22;12379;49.820;8.648;2023-04-30T07:31:07;22.80;74.90
24250;DHT22;12379;49.820;8.648;2023-04-30T07:33:33;22.90;75.30
24250;DHT22;12379;49.820;8.648;2023-04-30T07:35:58;23.20;72.60
24250;DHT22;12379;49.820;8.648;2023-04-30T07:38:26;23.10;71.80
24250;DHT22;12379;49.820;8.648;2023-04-30T07:40:52;23.00;70.10
24250;DHT22;12379;49.820;8.648;2023-04-30T07:43:17;22.30;72.50
24250;DHT22;12379;49.820;8.648;2023-04-30T07:45:43;22.00;73.30
24250;DHT22;12379;49.820;8.648;2023-04-30T07:48:09;22.40;73.30
24250;DHT22;12379;49.820;8.648;2023-04-30T07:50:35;23.00;72.60
24250;DHT22;12379;49.820;8.648;2023-04-30T07:53:01;23.20;68.40
24250;DHT22;12379;49.820;8.648;2023-04-30T07:55:27;23.10;69.00
24250;DHT22;12379;49.820;8.648;2023-04-30T07:57:52;23.60;68.40
24250;DHT22;12379;49.820;8.648;2023-04-30T08:00:18;24.00;67.00
24250;DHT22;12379;49.820;8.648;2023-04-30T08:02:44;24.00;65.50
24250;DHT22;12379;49.820;8.648;2023-04-30T08:05:10;24.10;64.60
24250;DHT22;12379;49.820;8.648;2023-04-30T08:07:36;24.00;63.20
24250;DHT22;12379;49.820;8.648;2023-04-30T08:10:01;24.00;63.50
24250;DHT22;12379;49.820;8.648;2023-04-30T08:12:27;23.60;63.10
24250;DHT22;12379;49.820;8.648;2023-04-30T08:15:01;23.40;65.80
24250;DHT22;12379;49.820;8.648;2023-04-30T08:17:27;23.50;63.30
24250;DHT22;12379;49.820;8.648;2023-04-30T08:20:02;23.00;62.70
24250;DHT22;12379;49.820;8.648;2023-04-30T08:22:28;22.80;61.80
24250;DHT22;12379;49.820;8.648;2023-04-30T08:24:54;23.30;62.00
24250;DHT22;12379;49.820;8.648;2023-04-30T08:27:20;22.80;62.80
24250;DHT22;12379;49.820;8.648;2023-04-30T08:29:46;23.00;63.40
24250;DHT22;12379;49.820;8.648;2023-04-30T08:32:14;22.20;63.10
24250;DHT22;12379;49.820;8.648;2023-04-30T08:34:40;22.60;62.50
24250;DHT22;12379;49.820;8.648;2023-04-30T08:37:06;23.10;62.80
24250;DHT22;12379;49.820;8.648;2023-04-30T08:39:32;23.60;61.00
24250;DHT22;12379;49.820;8.648;2023-04-30T08:42:01;23.50;61.40
24250;DHT22;12379;49.820;8.648;2023-04-30T08:44:30;24.30;58.90
24250;DHT22;12379;49.820;8.648;2023-04-30T08:46:58;24.70;57.30
24250;DHT22;12379;49.820;8.648;2023-04-30T08:49:27;23.60;56.70
24250;DHT22;12379;49.820;8.648;2023-04-30T08:52:00;21.90;59.60
24250;DHT22;12379;49.820;8.648;2023-04-30T08:54:27;22.30;60.60
24250;DHT22;12379;49.820;8.648;2023-04-30T08:56:54;23.10;58.00
24250;DHT22;12379;49.820;8.648;2023-04-30T08:59:20;22.30;58.60
24250;DHT22;12379;49.820;8.648;2023-04-30T09:01:46;22.30;60.60
24250;DHT22;12379;49.820;8.648;2023-04-30T09:04:11;23.20;58.40
24250;DHT22;12379;49.820;8.648;2023-04-30T09:06:37;23.00;56.50
24250;DHT22;12379;49.820;8.648;2023-04-30T09:09:11;22.40;56.30
24250;DHT22;12379;49.820;8.648;2023-04-30T09:11:37;22.30;58.00
24250;DHT22;12379;49.820;8.648;2023-04-30T09:14:03;23.00;57.70
24250;DHT22;12379;49.820;8.648;2023-04-30T09:16:43;23.90;55.50
24250;DHT22;12379;49.820;8.648;2023-04-30T09:19:21;23.60;53.50
24250;DHT22;12379;49.820;8.648;2023-04-30T09:21:47;23.00;54.50
24250;DHT22;12379;49.820;8.648;2023-04-30T09:24:12;22.80;55.90
24250;DHT22;12379;49.820;8.648;2023-04-30T09:26:38;23.30;55.60
24250;DHT22;12379;49.820;8.648;2023-04-30T09:29:04;23.50;52.70
24250;DHT22;12379;49.820;8.648;2023-04-30T09:35:08;24.00;52.80
24250;DHT22;12379;49.820;8.648;2023-04-30T09:37:45;25.10;49.30
24250;DHT22;12379;49.820;8.648;2023-04-30T09:40:11;23.70;51.10
24250;DHT22;12379;49.820;8.648;2023-04-30T09:42:37;23.30;50.50
24250;DHT22;12379;49.820;8.648;2023-04-30T09:45:04;22.30;51.20
24250;DHT22;12379;49.820;8.648;2023-04-30T09:47:30;21.60;53.90
24250;DHT22;12379;49.820;8.648;2023-04-30T09:49:58;21.80;53.40
24250;DHT22;12379;49.820;8.648;2023-04-30T09:52:24;22.80;53.90
24250;DHT22;12379;49.820;8.648;2023-04-30T09:54:50;22.70;50.10
24250;DHT22;12379;49.820;8.648;2023-04-30T09:57:15;22.80;50.90
24250;DHT22;12379;49.820;8.648;2023-04-30T09:59:44;23.00;49.50
24250;DHT22;12379;49.820;8.648;2023-04-30T10:02:13;23.10;49.30
24250;DHT22;12379;49.820;8.648;2023-04-30T10:04:42;23.30;48.40
24250;DHT22;12379;49.820;8.648;2023-04-30T10:07:12;23.10;49.40
24250;DHT22;12379;49.820;8.648;2023-04-30T10:09:50;23.40;48.20
24250;DHT22;12379;49.820;8.648;2023-04-30T10:12:21;23.50;48.50
24250;DHT22;12379;49.820;8.648;2023-04-30T10:15:01;23.50;46.90
24250;DHT22;12379;49.820;8.648;2023-04-30T10:17:32;23.50;47.30
24250;DHT22;12379;49.820;8.648;2023-04-30T10:20:02;23.80;47.40
24250;DHT22;12379;49.820;8.648;2023-04-30T10:22:33;23.30;46.60
24250;DHT22;12379;49.820;8.648;2023-04-30T10:25:00;22.30;48.30
24250;DHT22;12379;49.820;8.648;2023-04-30T10:27:33;21.90;49.80
24250;DHT22;12379;49.820;8.648;2023-04-30T10:30:09;22.50;49.50
24250;DHT22;12379;49.820;8.648;2023-04-30T10:33:28;23.00;47.20
24250;DHT22;12379;49.820;8.648;2023-04-30T10:35:39;23.20;46.70
24250;DHT22;12379;49.820;8.648;2023-04-30T10:38:14;23.40;47.80
24250;DHT22;12379;49.820;8.648;2023-04-30T10:40:45;23.40;47.60
24250;DHT22;12379;49.820;8.648;2023-04-30T10:43:11;23.40;47.60
24250;DHT22;12379;49.820;8.648;2023-04-30T10:45:40;23.40;46.90
24250;DHT22;12379;49.820;8.648;2023-04-30T10:48:09;23.20;45.70
24250;DHT22;12379;49.820;8.648;2023-04-30T10:50:42;22.80;46.60
24250;DHT22;12379;49.820;8.648;2023-04-30T10:53:16;22.20;47.20
24250;DHT22;12379;49.820;8.648;2023-04-30T10:56:03;22.10;48.50
24250;DHT22;12379;49.820;8.648;2023-04-30T10:58:36;22.50;47.50
24250;DHT22;12379;49.820;8.648;2023-04-30T11:01:11;22.60;47.80
24250;DHT22;12379;49.820;8.648;2023-04-30T11:03:39;22.30;46.90
24250;DHT22;12379;49.820;8.648;2023-04-30T11:06:13;22.00;47.80
24250;DHT22;12379;49.820;8.648;2023-04-30T11:08:42;21.50;48.30
24250;DHT22;12379;49.820;8.648;2023-04-30T11:11:09;20.90;49.80
24250;DHT22;12379;49.820;8.648;2023-04-30T11:13:45;20.20;51.00
24250;DHT22;12379;49.820;8.648;2023-04-30T11:16:11;19.90;51.80
24250;DHT22;12379;49.820;8.648;2023-04-30T11:18:44;20.00;51.80
24250;DHT22;12379;49.820;8.648;2023-04-30T11:21:13;19.90;52.00
24250;DHT22;12379;49.820;8.648;2023-04-30T11:23:42;19.90;51.90
24250;DHT22;12379;49.820;8.648;2023-04-30T11:26:09;20.10;52.20
24250;DHT22;12379;49.820;8.648;2023-04-30T11:28:35;19.90;51.20
24250;DHT22;12379;49.820;8.648;2023-04-30T11:31:02;20.00;52.10
24250;DHT22;12379;49.820;8.648;2023-04-30T11:33:29;19.90;51.10
24250;DHT22;12379;49.820;8.648;2023-04-30T11:35:56;19.80;50.60
24250;DHT22;12379;49.820;8.648;2023-04-30T11:38:26;19.90;50.60
24250;DHT22;12379;49.820;8.648;2023-04-30T11:40:52;20.20;51.20
24250;DHT22;12379;49.820;8.648;2023-04-30T11:43:32;20.00;51.60
24250;DHT22;12379;49.820;8.648;2023-04-30T11:46:09;20.00;51.40
24250;DHT22;12379;49.820;8.648;2023-04-30T11:48:39;20.10;51.20
24250;DHT22;12379;49.820;8.648;2023-04-30T11:51:21;20.20;50.90
24250;DHT22;12379;49.820;8.648;2023-04-30T11:53:48;20.20;52.20
24250;DHT22;12379;49.820;8.648;2023-04-30T11:56:21;20.40;51.90
24250;DHT22;12379;49.820;8.648;2023-04-30T11:58:49;20.50;51.30
24250;DHT22;12379;49.820;8.648;2023-04-30T12:01:14;20.50;51.10
24250;DHT22;12379;49.820;8.648;2023-04-30T12:03:45;20.50;50.90
24250;DHT22;12379;49.820;8.648;2023-04-30T12:06:20;20.50;50.60
24250;DHT22;12379;49.820;8.648;2023-04-30T12:08:46;20.80;49.90
24250;DHT22;12379;49.820;8.648;2023-04-30T12:11:22;21.00;49.40
24250;DHT22;12379;49.820;8.648;2023-04-30T12:16:51;21.30;49.80
24250;DHT22;12379;49.820;8.648;2023-04-30T12:19:20;21.50;50.00
24250;DHT22;12379;49.820;8.648;2023-04-30T12:21:47;21.80;49.50
24250;DHT22;12379;49.820;8.648;2023-04-30T12:24:18;21.50;48.60
24250;DHT22;12379;49.820;8.648;2023-04-30T12:26:44;21.00;48.20
24250;DHT22;12379;49.820;8.648;2023-04-30T12:29:21;20.60;48.90
24250;DHT22;12379;49.820;8.648;2023-04-30T12:31:48;20.80;49.10
24250;DHT22;12379;49.820;8.648;2023-04-30T12:34:16;20.80;48.70
24250;DHT22;12379;49.820;8.648;2023-04-30T12:36:42;20.70;49.90
24250;DHT22;12379;49.820;8.648;2023-04-30T12:39:12;20.90;50.30
24250;DHT22;12379;49.820;8.648;2023-04-30T12:41:45;21.20;49.60
24250;DHT22;12379;49.820;8.648;2023-04-30T12:44:18;21.30;48.90
24250;DHT22;12379;49.820;8.648;2023-04-30T12:46:45;21.20;49.20
24250;DHT22;12379;49.820;8.648;2023-04-30T12:49:11;21.00;49.80
24250;DHT22;12379;49.820;8.648;2023-04-30T12:51:38;21.20;49.30
24250;DHT22;12379;49.820;8.648;2023-04-30T12:54:06;21.20;49.30
24250;DHT22;12379;49.820;8.648;2023-04-30T12:56:32;21.50;49.00
24250;DHT22;12379;49.820;8.648;2023-04-30T12:58:58;21.50;48.70
24250;DHT22;12379;49.820;8.648;2023-04-30T13:01:23;21.40;48.80
24250;DHT22;12379;49.820;8.648;2023-04-30T13:03:50;21.10;48.10
24250;DHT22;12379;49.820;8.648;2023-04-30T13:06:16;20.80;49.00
24250;DHT22;12379;49.820;8.648;2023-04-30T13:08:43;21.00;49.20
24250;DHT22;12379;49.820;8.648;2023-04-30T13:11:09;21.40;48.90
24250;DHT22;12379;49.820;8.648;2023-04-30T13:13:35;21.60;49.00
24250;DHT22;12379;49.820;8.648;2023-04-30T13:16:01;22.00;50.10
24250;DHT22;12379;49.820;8.648;2023-04-30T13:18:29;22.10;49.40
24250;DHT22;12379;49.820;8.648;2023-04-30T13:20:55;22.20;49.40
24250;DHT22;12379;49.820;8.648;2023-04-30T13:23:20;22.10;47.80
24250;DHT22;12379;49.820;8.648;2023-04-30T13:25:46;22.10;48.70
24250;DHT22;12379;49.820;8.648;2023-04-30T13:28:12;22.00;47.00
24250;DHT22;12379;49.820;8.648;2023-04-30T13:30:37;22.00;48.00
24250;DHT22;12379;49.820;8.648;2023-04-30T13:33:03;22.00;48.50
24250;DHT22;12379;49.820;8.648;2023-04-30T13:35:29;22.00;48.20
24250;DHT22;12379;49.820;8.648;2023-04-30T13:37:57;21.80;47.90
24250;DHT22;12379;49.820;8.648;2023-04-30T13:40:26;21.70;47.50
24250;DHT22;12379;49.820;8.648;2023-04-30T13:42:52;21.30;47.80
24250;DHT22;12379;49.820;8.648;2023-04-30T13:45:21;21.30;47.90
24250;DHT22;12379;49.820;8.648;2023-04-30T13:47:47;21.40;47.70
24250;DHT22;12379;49.820;8.648;2023-04-30T13:50:22;21.30;47.00
24250;DHT22;12379;49.820;8.648;2023-04-30T13:52:53;21.40;47.50
24250;DHT22;12379;49.820;8.648;2023-04-30T13:55:23;21.20;47.00
24250;DHT22;12379;49.820;8.648;2023-04-30T13:57:49;20.90;47.90
24250;DHT22;12379;49.820;8.648;2023-04-30T14:00:15;20.70;48.20
24250;DHT22;12379;49.820;8.648;2023-04-30T14:02:43;21.00;48.50
24250;DHT22;12379;49.820;8.648;2023-04-30T14:05:09;21.10;49.20
24250;DHT22;12379;49.820;8.648;2023-04-30T14:07:35;21.40;48.30
24250;DHT22;12379;49.820;8.648;2023-04-30T14:10:01;21.70;48.30
24250;DHT22;12379;49.820;8.648;2023-04-30T14:12:29;21.90;47.50
24250;DHT22;12379;49.820;8.648;2023-04-30T14:14:58;22.00;48.00
24250;DHT22;12379;49.820;8.648;2023-04-30T14:17:29;22.00;48.00
24250;DHT22;12379;49.820;8.648;2023-04-30T14:19:58;22.10;47.40
24250;DHT22;12379;49.820;8.648;2023-04-30T14:22:24;21.70;48.30
24250;DHT22;12379;49.820;8.648;2023-04-30T14:24:51;21.40;48.90
24250;DHT22;12379;49.820;8.648;2023-04-30T14:27:17;21.30;49.00
24250;DHT22;12379;49.820;8.648;2023-04-30T14:29:42;21.10;48.90
24250;DHT22;12379;49.820;8.648;2023-04-30T14:32:08;20.80;49.00
24250;DHT22;12379;49.820;8.648;2023-04-30T14:34:34;21.10;49.10
24250;DHT22;12379;49.820;8.648;2023-04-30T14:37:01;21.30;48.00
24250;DHT22;12379;49.820;8.648;2023-04-30T14:39:27;21.80;49.70
24250;DHT22;12379;49.820;8.648;2023-04-30T14:41:53;22.50;48.60
24250;DHT22;12379;49.820;8.648;2023-04-30T14:44:19;22.70;48.30
24250;DHT22;12379;49.820;8.648;2023-04-30T14:46:46;22.40;47.80
24250;DHT22;12379;49.820;8.648;2023-04-30T14:49:11;22.30;48.10
24250;DHT22;12379;49.820;8.648;2023-04-30T14:51:37;22.40;48.20
24250;DHT22;12379;49.820;8.648;2023-04-30T14:54:02;22.30;48.10
24250;DHT22;12379;49.820;8.648;2023-04-30T14:56:28;22.00;48.80
24250;DHT22;12379;49.820;8.648;2023-04-30T14:58:53;21.90;48.20
24250;DHT22;12379;49.820;8.648;2023-04-30T15:01:19;22.00;49.10
24250;DHT22;12379;49.820;8.648;2023-04-30T15:03:45;21.90;47.90
24250;DHT22;12379;49.820;8.648;2023-04-30T15:06:10;21.80;48.40
24250;DHT22;12379;49.820;8.648;2023-04-30T15:08:36;22.00;48.30
24250;DHT22;12379;49.820;8.648;2023-04-30T15:11:02;22.10;47.80
24250;DHT22;12379;49.820;8.648;2023-04-30T15:13:31;22.10;48.00
24250;DHT22;12379;49.820;8.648;2023-04-30T15:15:57;22.10;47.80
24250;DHT22;12379;49.820;8.648;2023-04-30T15:18:22;22.20;48.10
24250;DHT22;12379;49.820;8.648;2023-04-30T15:20:48;22.30;48.50
24250;DHT22;12379;49.820;8.648;2023-04-30T15:23:13;22.30;48.60
24250;DHT22;12379;49.820;8.648;2023-04-30T15:25:39;22.10;48.70
24250;DHT22;12379;49.820;8.648;2023-04-30T15:28:05;21.60;48.30
24250;DHT22;12379;49.820;8.648;2023-04-30T15:30:31;21.20;49.50
24250;DHT22;12379;49.820;8.648;2023-04-30T15:32:56;21.20;49.60
24250;DHT22;12379;49.820;8.648;2023-04-30T15:35:22;21.20;48.60
24250;DHT22;12379;49.820;8.648;2023-04-30T15:37:47;21.00;48.90
24250;DHT22;12379;49.820;8.648;2023-04-30T15:40:13;20.90;49.80
24250;DHT22;12379;49.820;8.648;2023-04-30T15:42:40;21.10;49.20
24250;DHT22;12379;49.820;8.648;2023-04-30T15:45:06;21.20;48.70
24250;DHT22;12379;49.820;8.648;2023-04-30T15:47:32;21.10;48.60
24250;DHT22;12379;49.820;8.648;2023-04-30T15:49:57;21.10;49.20
24250;DHT22;12379;49.820;8.648;2023-04-30T15:52:23;21.10;49.10
24250;DHT22;12379;49.820;8.648;2023-04-30T15:54:49;21.20;49.30